sensor_id;sensor_type;location;lat;lon;timestamp;P1;durP1;ratioP1;P2;durP2;ratioP2
56830;SDS011;42713;42.676;23.352;2023-03-01T00:01:35;7.00;;;3.17;;
56830;SDS011;42713;42.676;23.352;2023-03-01T00:04:01;7.30;;;3.08;;
56830;SDS011;42713;42.676;23.352;2023-03-01T00:06:27;6.88;;;3.03;;
56830;SDS011;42713;42.676;23.352;2023-03-01T00:08:53;6.20;;;2.92;;
56830;SDS011;42713;42.676;23.352;2023-03-01T00:11:20;7.55;;;3.15;;
56830;SDS011;42713;42.676;23.352;2023-03-01T00:13:51;7.00;;;2.88;;
56830;SDS011;42713;42.676;23.352;2023-03-01T00:16:19;6.78;;;2.95;;
56830;SDS011;42713;42.676;23.352;2023-03-01T00:18:50;6.05;;;2.80;;
56830;SDS011;42713;42.676;23.352;2023-03-01T00:21:16;4.93;;;2.30;;
56830;SDS011;42713;42.676;23.352;2023-03-01T00:23:42;5.00;;;2.20;;
56830;SDS011;42713;42.676;23.352;2023-03-01T00:26:09;6.38;;;2.58;;
56830;SDS011;42713;42.676;23.352;2023-03-01T00:28:35;6.18;;;2.60;;
56830;SDS011;42713;42.676;23.352;2023-03-01T00:31:05;5.72;;;2.38;;
56830;SDS011;42713;42.676;23.352;2023-03-01T00:33:32;5.88;;;2.55;;
56830;SDS011;42713;42.676;23.352;2023-03-01T00:35:58;5.15;;;2.10;;
56830;SDS011;42713;42.676;23.352;2023-03-01T00:38:24;6.07;;;2.50;;
56830;SDS011;42713;42.676;23.352;2023-03-01T00:40:50;5.25;;;2.10;;
56830;SDS011;42713;42.676;23.352;2023-03-01T00:43:15;5.88;;;2.30;;
56830;SDS011;42713;42.676;23.352;2023-03-01T00:45:41;5.65;;;2.42;;
56830;SDS011;42713;42.676;23.352;2023-03-01T00:48:06;5.70;;;2.30;;
56830;SDS011;42713;42.676;23.352;2023-03-01T00:50:32;4.78;;;1.90;;
56830;SDS011;42713;42.676;23.352;2023-03-01T00:52:58;6.30;;;2.10;;
56830;SDS011;42713;42.676;23.352;2023-03-01T00:55:23;7.25;;;2.28;;
56830;SDS011;42713;42.676;23.352;2023-03-01T00:57:49;5.85;;;2.10;;
56830;SDS011;42713;42.676;23.352;2023-03-01T01:00:15;5.63;;;2.25;;
56830;SDS011;42713;42.676;23.352;2023-03-01T01:02:41;4.93;;;2.20;;
56830;SDS011;42713;42.676;23.352;2023-03-01T01:05:07;5.03;;;1.92;;
56830;SDS011;42713;42.676;23.352;2023-03-01T01:07:33;5.00;;;1.95;;
56830;SDS011;42713;42.676;23.352;2023-03-01T01:09:58;4.30;;;1.88;;
56830;SDS011;42713;42.676;23.352;2023-03-01T01:12:24;5.45;;;2.10;;
56830;SDS011;42713;42.676;23.352;2023-03-01T01:14:49;7.22;;;2.20;;
56830;SDS011;42713;42.676;23.352;2023-03-01T01:17:15;5.53;;;2.00;;
56830;SDS011;42713;42.676;23.352;2023-03-01T01:19:40;5.13;;;2.10;;
56830;SDS011;42713;42.676;23.352;2023-03-01T01:22:06;5.70;;;2.05;;
56830;SDS011;42713;42.676;23.352;2023-03-01T01:24:32;5.22;;;2.00;;
56830;SDS011;42713;42.676;23.352;2023-03-01T01:26:57;3.83;;;1.70;;
56830;SDS011;42713;42.676;23.352;2023-03-01T01:29:23;5.40;;;2.00;;
56830;SDS011;42713;42.676;23.352;2023-03-01T01:31:48;6.18;;;2.17;;
56830;SDS011;42713;42.676;23.352;2023-03-01T01:34:15;3.90;;;1.90;;
56830;SDS011;42713;42.676;23.352;2023-03-01T01:36:43;4.53;;;1.80;;
56830;SDS011;42713;42.676;23.352;2023-03-01T01:39:09;4.68;;;1.73;;
56830;SDS011;42713;42.676;23.352;2023-03-01T01:41:38;3.00;;;1.40;;
56830;SDS011;42713;42.676;23.352;2023-03-01T01:44:11;3.55;;;1.38;;
56830;SDS011;42713;42.676;23.352;2023-03-01T01:47:24;3.88;;;1.65;;
56830;SDS011;42713;42.676;23.352;2023-03-01T01:49:43;2.55;;;1.33;;
56830;SDS011;42713;42.676;23.352;2023-03-01T01:52:19;3.47;;;1.58;;
56830;SDS011;42713;42.676;23.352;2023-03-01T01:54:53;5.13;;;1.58;;
56830;SDS011;42713;42.676;23.352;2023-03-01T01:57:43;3.63;;;1.50;;
56830;SDS011;42713;42.676;23.352;2023-03-01T02:00:12;3.38;;;1.50;;
56830;SDS011;42713;42.676;23.352;2023-03-01T02:02:46;3.03;;;1.30;;
56830;SDS011;42713;42.676;23.352;2023-03-01T02:07:54;3.22;;;1.38;;
56830;SDS011;42713;42.676;23.352;2023-03-01T02:10:22;2.63;;;1.38;;
56830;SDS011;42713;42.676;23.352;2023-03-01T02:12:48;1.65;;;1.02;;
56830;SDS011;42713;42.676;23.352;2023-03-01T02:15:15;3.95;;;1.50;;
56830;SDS011;42713;42.676;23.352;2023-03-01T02:17:41;4.60;;;1.45;;
56830;SDS011;42713;42.676;23.352;2023-03-01T02:22:39;3.33;;;1.50;;
56830;SDS011;42713;42.676;23.352;2023-03-01T02:25:12;2.85;;;1.38;;
56830;SDS011;42713;42.676;23.352;2023-03-01T02:30:18;3.42;;;1.58;;
56830;SDS011;42713;42.676;23.352;2023-03-01T02:32:45;4.03;;;1.63;;
56830;SDS011;42713;42.676;23.352;2023-03-01T02:35:13;2.78;;;1.42;;
56830;SDS011;42713;42.676;23.352;2023-03-01T02:37:41;3.10;;;1.40;;
56830;SDS011;42713;42.676;23.352;2023-03-01T02:40:08;4.25;;;1.90;;
56830;SDS011;42713;42.676;23.352;2023-03-01T02:42:41;2.83;;;1.50;;
56830;SDS011;42713;42.676;23.352;2023-03-01T02:45:15;4.18;;;1.80;;
56830;SDS011;42713;42.676;23.352;2023-03-01T02:47:40;3.35;;;1.67;;
56830;SDS011;42713;42.676;23.352;2023-03-01T02:50:39;4.75;;;1.90;;
56830;SDS011;42713;42.676;23.352;2023-03-01T02:55:32;3.53;;;1.50;;
56830;SDS011;42713;42.676;23.352;2023-03-01T02:57:58;4.53;;;1.80;;
56830;SDS011;42713;42.676;23.352;2023-03-01T03:00:28;3.50;;;1.50;;
56830;SDS011;42713;42.676;23.352;2023-03-01T03:03:04;4.65;;;1.73;;
56830;SDS011;42713;42.676;23.352;2023-03-01T03:05:30;4.28;;;1.70;;
56830;SDS011;42713;42.676;23.352;2023-03-01T03:07:56;5.50;;;1.85;;
56830;SDS011;42713;42.676;23.352;2023-03-01T03:10:27;4.35;;;1.80;;
56830;SDS011;42713;42.676;23.352;2023-03-01T03:12:58;5.57;;;2.20;;
56830;SDS011;42713;42.676;23.352;2023-03-01T03:15:26;4.40;;;2.00;;
56830;SDS011;42713;42.676;23.352;2023-03-01T03:17:54;6.43;;;2.10;;
56830;SDS011;42713;42.676;23.352;2023-03-01T03:20:20;6.80;;;2.13;;
56830;SDS011;42713;42.676;23.352;2023-03-01T03:22:49;4.75;;;2.03;;
56830;SDS011;42713;42.676;23.352;2023-03-01T03:25:18;4.00;;;2.00;;
56830;SDS011;42713;42.676;23.352;2023-03-01T03:27:44;4.75;;;1.90;;
56830;SDS011;42713;42.676;23.352;2023-03-01T03:30:13;5.57;;;2.25;;
56830;SDS011;42713;42.676;23.352;2023-03-01T03:32:44;4.88;;;2.00;;
56830;SDS011;42713;42.676;23.352;2023-03-01T03:35:20;5.57;;;2.00;;
56830;SDS011;42713;42.676;23.352;2023-03-01T03:37:55;5.68;;;2.03;;
56830;SDS011;42713;42.676;23.352;2023-03-01T03:40:29;6.13;;;2.20;;
56830;SDS011;42713;42.676;23.352;2023-03-01T03:42:57;6.07;;;2.30;;
56830;SDS011;42713;42.676;23.352;2023-03-01T03:45:22;6.88;;;2.10;;
56830;SDS011;42713;42.676;23.352;2023-03-01T03:47:48;6.65;;;2.40;;
56830;SDS011;42713;42.676;23.352;2023-03-01T03:50:14;5.30;;;2.13;;
56830;SDS011;42713;42.676;23.352;2023-03-01T03:52:41;6.00;;;2.53;;
56830;SDS011;42713;42.676;23.352;2023-03-01T03:55:07;5.35;;;2.30;;
56830;SDS011;42713;42.676;23.352;2023-03-01T03:57:37;5.57;;;2.47;;
56830;SDS011;42713;42.676;23.352;2023-03-01T04:00:04;5.40;;;2.20;;
56830;SDS011;42713;42.676;23.352;2023-03-01T04:02:37;4.57;;;2.22;;
56830;SDS011;42713;42.676;23.352;2023-03-01T04:05:04;5.93;;;2.40;;
56830;SDS011;42713;42.676;23.352;2023-03-01T04:07:30;5.32;;;2.10;;
56830;SDS011;42713;42.676;23.352;2023-03-01T04:09:55;5.00;;;2.15;;
56830;SDS011;42713;42.676;23.352;2023-03-01T04:12:21;7.28;;;2.03;;
56830;SDS011;42713;42.676;23.352;2023-03-01T04:14:48;5.38;;;2.00;;
56830;SDS011;42713;42.676;23.352;2023-03-01T04:17:14;5.03;;;1.98;;
56830;SDS011;42713;42.676;23.352;2023-03-01T04:19:39;7.70;;;2.10;;
56830;SDS011;42713;42.676;23.352;2023-03-01T04:22:05;6.28;;;2.40;;
56830;SDS011;42713;42.676;23.352;2023-03-01T04:24:37;5.38;;;2.20;;
56830;SDS011;42713;42.676;23.352;2023-03-01T04:27:03;4.93;;;1.88;;
56830;SDS011;42713;42.676;23.352;2023-03-01T04:29:28;5.47;;;2.10;;
56830;SDS011;42713;42.676;23.352;2023-03-01T04:31:54;8.50;;;2.60;;
56830;SDS011;42713;42.676;23.352;2023-03-01T04:34:19;6.28;;;2.38;;
56830;SDS011;42713;42.676;23.352;2023-03-01T04:36:45;5.60;;;2.03;;
56830;SDS011;42713;42.676;23.352;2023-03-01T04:39:10;5.85;;;2.38;;
56830;SDS011;42713;42.676;23.352;2023-03-01T04:41:39;6.90;;;2.28;;
56830;SDS011;42713;42.676;23.352;2023-03-01T04:44:05;7.10;;;2.13;;
56830;SDS011;42713;42.676;23.352;2023-03-01T04:46:31;6.28;;;2.17;;
56830;SDS011;42713;42.676;23.352;2023-03-01T04:48:57;6.15;;;2.38;;
56830;SDS011;42713;42.676;23.352;2023-03-01T04:51:23;10.13;;;3.92;;
56830;SDS011;42713;42.676;23.352;2023-03-01T04:53:48;6.53;;;2.67;;
56830;SDS011;42713;42.676;23.352;2023-03-01T04:56:14;7.05;;;2.60;;
56830;SDS011;42713;42.676;23.352;2023-03-01T04:58:40;5.90;;;2.30;;
56830;SDS011;42713;42.676;23.352;2023-03-01T05:01:13;8.98;;;2.70;;
56830;SDS011;42713;42.676;23.352;2023-03-01T05:03:42;6.28;;;2.50;;
56830;SDS011;42713;42.676;23.352;2023-03-01T05:06:09;7.38;;;2.67;;
56830;SDS011;42713;42.676;23.352;2023-03-01T05:08:36;7.45;;;2.60;;
56830;SDS011;42713;42.676;23.352;2023-03-01T05:11:02;8.60;;;3.30;;
56830;SDS011;42713;42.676;23.352;2023-03-01T05:13:28;8.35;;;3.42;;
56830;SDS011;42713;42.676;23.352;2023-03-01T05:15:58;10.55;;;3.72;;
56830;SDS011;42713;42.676;23.352;2023-03-01T05:20:54;7.80;;;2.92;;
56830;SDS011;42713;42.676;23.352;2023-03-01T05:23:23;6.75;;;2.78;;
56830;SDS011;42713;42.676;23.352;2023-03-01T05:25:50;6.70;;;2.65;;
56830;SDS011;42713;42.676;23.352;2023-03-01T05:28:17;8.00;;;2.40;;
56830;SDS011;42713;42.676;23.352;2023-03-01T05:30:43;11.32;;;2.58;;
56830;SDS011;42713;42.676;23.352;2023-03-01T05:33:09;5.70;;;2.40;;
56830;SDS011;42713;42.676;23.352;2023-03-01T05:35:39;8.68;;;2.50;;
56830;SDS011;42713;42.676;23.352;2023-03-01T05:38:17;6.80;;;2.78;;
56830;SDS011;42713;42.676;23.352;2023-03-01T05:40:44;6.07;;;2.50;;
56830;SDS011;42713;42.676;23.352;2023-03-01T05:43:11;7.28;;;2.72;;
56830;SDS011;42713;42.676;23.352;2023-03-01T05:45:39;8.15;;;2.90;;
56830;SDS011;42713;42.676;23.352;2023-03-01T05:48:06;7.95;;;3.38;;
56830;SDS011;42713;42.676;23.352;2023-03-01T05:50:33;6.53;;;2.53;;
56830;SDS011;42713;42.676;23.352;2023-03-01T05:53:16;6.75;;;2.97;;
56830;SDS011;42713;42.676;23.352;2023-03-01T05:55:45;7.68;;;3.53;;
56830;SDS011;42713;42.676;23.352;2023-03-01T05:58:14;8.55;;;3.50;;
56830;SDS011;42713;42.676;23.352;2023-03-01T06:00:42;7.85;;;3.50;;
56830;SDS011;42713;42.676;23.352;2023-03-01T06:03:09;9.43;;;3.88;;
56830;SDS011;42713;42.676;23.352;2023-03-01T06:05:36;9.13;;;4.20;;
56830;SDS011;42713;42.676;23.352;2023-03-01T06:08:01;9.15;;;3.83;;
56830;SDS011;42713;42.676;23.352;2023-03-01T06:10:28;11.55;;;4.18;;
56830;SDS011;42713;42.676;23.352;2023-03-01T06:12:53;7.00;;;3.13;;
56830;SDS011;42713;42.676;23.352;2023-03-01T06:15:19;7.15;;;2.95;;
56830;SDS011;42713;42.676;23.352;2023-03-01T06:17:45;10.43;;;3.22;;
56830;SDS011;42713;42.676;23.352;2023-03-01T06:22:47;9.85;;;3.15;;
56830;SDS011;42713;42.676;23.352;2023-03-01T06:25:15;8.32;;;2.92;;
56830;SDS011;42713;42.676;23.352;2023-03-01T06:27:42;7.78;;;2.90;;
56830;SDS011;42713;42.676;23.352;2023-03-01T06:30:09;6.95;;;3.17;;
56830;SDS011;42713;42.676;23.352;2023-03-01T06:32:36;8.52;;;2.72;;
56830;SDS011;42713;42.676;23.352;2023-03-01T06:35:03;8.48;;;2.55;;
56830;SDS011;42713;42.676;23.352;2023-03-01T06:37:29;7.88;;;2.50;;
56830;SDS011;42713;42.676;23.352;2023-03-01T06:39:55;7.18;;;3.03;;
56830;SDS011;42713;42.676;23.352;2023-03-01T06:42:20;10.02;;;2.97;;
56830;SDS011;42713;42.676;23.352;2023-03-01T06:44:45;8.32;;;3.20;;
56830;SDS011;42713;42.676;23.352;2023-03-01T06:47:12;8.48;;;3.33;;
56830;SDS011;42713;42.676;23.352;2023-03-01T06:49:37;7.60;;;2.90;;
56830;SDS011;42713;42.676;23.352;2023-03-01T06:52:03;7.55;;;2.80;;
56830;SDS011;42713;42.676;23.352;2023-03-01T06:54:28;8.85;;;3.03;;
56830;SDS011;42713;42.676;23.352;2023-03-01T06:56:54;8.82;;;3.15;;
56830;SDS011;42713;42.676;23.352;2023-03-01T06:59:19;7.03;;;2.80;;
56830;SDS011;42713;42.676;23.352;2023-03-01T07:01:45;7.68;;;3.10;;
56830;SDS011;42713;42.676;23.352;2023-03-01T07:04:11;9.52;;;3.35;;
56830;SDS011;42713;42.676;23.352;2023-03-01T07:06:37;9.63;;;3.25;;
56830;SDS011;42713;42.676;23.352;2023-03-01T07:09:02;7.50;;;2.97;;
56830;SDS011;42713;42.676;23.352;2023-03-01T07:11:28;11.63;;;3.10;;
56830;SDS011;42713;42.676;23.352;2023-03-01T07:13:53;8.73;;;2.53;;
56830;SDS011;42713;42.676;23.352;2023-03-01T07:16:20;8.02;;;2.63;;
56830;SDS011;42713;42.676;23.352;2023-03-01T07:18:45;7.10;;;2.38;;
56830;SDS011;42713;42.676;23.352;2023-03-01T07:21:12;9.45;;;2.97;;
56830;SDS011;42713;42.676;23.352;2023-03-01T07:23:38;6.78;;;2.58;;
56830;SDS011;42713;42.676;23.352;2023-03-01T07:26:04;6.50;;;2.42;;
56830;SDS011;42713;42.676;23.352;2023-03-01T07:28:29;6.20;;;2.13;;
56830;SDS011;42713;42.676;23.352;2023-03-01T07:31:00;9.65;;;2.88;;
56830;SDS011;42713;42.676;23.352;2023-03-01T07:33:26;7.78;;;2.97;;
56830;SDS011;42713;42.676;23.352;2023-03-01T07:35:55;7.90;;;2.60;;
56830;SDS011;42713;42.676;23.352;2023-03-01T07:38:25;8.50;;;2.88;;
56830;SDS011;42713;42.676;23.352;2023-03-01T07:40:51;5.72;;;2.35;;
56830;SDS011;42713;42.676;23.352;2023-03-01T07:43:17;9.30;;;2.40;;
56830;SDS011;42713;42.676;23.352;2023-03-01T07:45:42;7.78;;;2.88;;
56830;SDS011;42713;42.676;23.352;2023-03-01T07:48:08;9.05;;;2.67;;
56830;SDS011;42713;42.676;23.352;2023-03-01T07:50:34;7.47;;;2.33;;
56830;SDS011;42713;42.676;23.352;2023-03-01T07:53:00;6.75;;;2.35;;
56830;SDS011;42713;42.676;23.352;2023-03-01T07:55:25;5.32;;;2.13;;
56830;SDS011;42713;42.676;23.352;2023-03-01T07:57:51;11.48;;;2.53;;
56830;SDS011;42713;42.676;23.352;2023-03-01T08:00:17;9.98;;;2.55;;
56830;SDS011;42713;42.676;23.352;2023-03-01T08:02:43;8.13;;;2.63;;
56830;SDS011;42713;42.676;23.352;2023-03-01T08:05:09;8.27;;;2.70;;
56830;SDS011;42713;42.676;23.352;2023-03-01T08:07:35;6.20;;;2.25;;
56830;SDS011;42713;42.676;23.352;2023-03-01T08:10:00;5.47;;;2.08;;
56830;SDS011;42713;42.676;23.352;2023-03-01T08:12:27;6.55;;;2.10;;
56830;SDS011;42713;42.676;23.352;2023-03-01T08:14:55;5.82;;;2.13;;
56830;SDS011;42713;42.676;23.352;2023-03-01T08:17:22;5.22;;;2.08;;
56830;SDS011;42713;42.676;23.352;2023-03-01T08:19:47;6.57;;;2.08;;
56830;SDS011;42713;42.676;23.352;2023-03-01T08:22:13;5.93;;;1.90;;
56830;SDS011;42713;42.676;23.352;2023-03-01T08:24:38;7.80;;;1.90;;
56830;SDS011;42713;42.676;23.352;2023-03-01T08:27:03;6.95;;;2.05;;
56830;SDS011;42713;42.676;23.352;2023-03-01T08:29:32;5.13;;;1.88;;
56830;SDS011;42713;42.676;23.352;2023-03-01T08:31:58;8.70;;;2.30;;
56830;SDS011;42713;42.676;23.352;2023-03-01T08:34:24;5.60;;;1.98;;
56830;SDS011;42713;42.676;23.352;2023-03-01T08:36:50;6.63;;;1.90;;
56830;SDS011;42713;42.676;23.352;2023-03-01T08:39:17;4.55;;;1.80;;
56830;SDS011;42713;42.676;23.352;2023-03-01T08:41:44;4.43;;;1.90;;
56830;SDS011;42713;42.676;23.352;2023-03-01T08:44:11;5.15;;;1.73;;
56830;SDS011;42713;42.676;23.352;2023-03-01T08:46:39;4.68;;;1.90;;
56830;SDS011;42713;42.676;23.352;2023-03-01T08:49:16;3.78;;;1.67;;
56830;SDS011;42713;42.676;23.352;2023-03-01T08:51:44;7.13;;;2.20;;
56830;SDS011;42713;42.676;23.352;2023-03-01T08:54:11;6.07;;;2.22;;
56830;SDS011;42713;42.676;23.352;2023-03-01T08:56:39;5.82;;;2.47;;
56830;SDS011;42713;42.676;23.352;2023-03-01T08:59:05;8.02;;;2.58;;
56830;SDS011;42713;42.676;23.352;2023-03-01T09:01:31;7.20;;;2.20;;
56830;SDS011;42713;42.676;23.352;2023-03-01T09:03:56;5.57;;;2.03;;
56830;SDS011;42713;42.676;23.352;2023-03-01T09:06:22;4.30;;;1.98;;
56830;SDS011;42713;42.676;23.352;2023-03-01T09:08:48;6.43;;;1.98;;
56830;SDS011;42713;42.676;23.352;2023-03-01T09:11:17;4.22;;;2.15;;
56830;SDS011;42713;42.676;23.352;2023-03-01T09:13:45;4.85;;;2.03;;
56830;SDS011;42713;42.676;23.352;2023-03-01T09:16:12;4.13;;;1.50;;
56830;SDS011;42713;42.676;23.352;2023-03-01T09:18:39;5.55;;;1.60;;
56830;SDS011;42713;42.676;23.352;2023-03-01T09:21:09;4.20;;;1.55;;
56830;SDS011;42713;42.676;23.352;2023-03-01T09:23:36;4.00;;;1.48;;
56830;SDS011;42713;42.676;23.352;2023-03-01T09:26:04;5.65;;;1.67;;
56830;SDS011;42713;42.676;23.352;2023-03-01T09:28:31;3.80;;;1.55;;
56830;SDS011;42713;42.676;23.352;2023-03-01T09:31:02;4.97;;;1.45;;
56830;SDS011;42713;42.676;23.352;2023-03-01T09:33:29;3.33;;;1.30;;
56830;SDS011;42713;42.676;23.352;2023-03-01T09:35:59;5.72;;;1.50;;
56830;SDS011;42713;42.676;23.352;2023-03-01T09:38:29;4.80;;;1.38;;
56830;SDS011;42713;42.676;23.352;2023-03-01T09:40:56;7.70;;;2.47;;
56830;SDS011;42713;42.676;23.352;2023-03-01T09:43:34;3.55;;;1.38;;
56830;SDS011;42713;42.676;23.352;2023-03-01T09:46:09;3.28;;;1.25;;
56830;SDS011;42713;42.676;23.352;2023-03-01T09:49:01;3.78;;;1.38;;
56830;SDS011;42713;42.676;23.352;2023-03-01T09:51:30;3.40;;;1.30;;
56830;SDS011;42713;42.676;23.352;2023-03-01T09:53:58;2.40;;;1.17;;
56830;SDS011;42713;42.676;23.352;2023-03-01T10:09:43;2.65;;;1.13;;
56830;SDS011;42713;42.676;23.352;2023-03-01T10:12:21;5.35;;;1.50;;
56830;SDS011;42713;42.676;23.352;2023-03-01T10:14:54;4.03;;;1.58;;
56830;SDS011;42713;42.676;23.352;2023-03-01T10:17:42;4.20;;;1.33;;
56830;SDS011;42713;42.676;23.352;2023-03-01T10:20:33;5.43;;;1.50;;
56830;SDS011;42713;42.676;23.352;2023-03-01T10:23:01;5.45;;;1.48;;
56830;SDS011;42713;42.676;23.352;2023-03-01T10:28:31;4.80;;;1.80;;
56830;SDS011;42713;42.676;23.352;2023-03-01T10:31:08;5.60;;;1.70;;
56830;SDS011;42713;42.676;23.352;2023-03-01T10:33:38;5.65;;;1.70;;
56830;SDS011;42713;42.676;23.352;2023-03-01T10:36:04;5.55;;;1.70;;
56830;SDS011;42713;42.676;23.352;2023-03-01T10:38:31;3.78;;;1.40;;
56830;SDS011;42713;42.676;23.352;2023-03-01T10:41:13;6.82;;;1.80;;
56830;SDS011;42713;42.676;23.352;2023-03-01T10:43:46;4.43;;;1.40;;
56830;SDS011;42713;42.676;23.352;2023-03-01T10:49:18;4.60;;;1.80;;
56830;SDS011;42713;42.676;23.352;2023-03-01T10:51:46;6.93;;;1.98;;
56830;SDS011;42713;42.676;23.352;2023-03-01T10:54:15;5.85;;;1.92;;
56830;SDS011;42713;42.676;23.352;2023-03-01T10:56:51;5.38;;;1.92;;
56830;SDS011;42713;42.676;23.352;2023-03-01T10:59:22;4.22;;;1.48;;
56830;SDS011;42713;42.676;23.352;2023-03-01T11:02:03;4.90;;;1.40;;
56830;SDS011;42713;42.676;23.352;2023-03-01T11:04:47;2.55;;;1.23;;
56830;SDS011;42713;42.676;23.352;2023-03-01T11:07:22;3.75;;;1.50;;
56830;SDS011;42713;42.676;23.352;2023-03-01T11:09:48;4.30;;;1.60;;
56830;SDS011;42713;42.676;23.352;2023-03-01T11:12:14;4.03;;;1.55;;
56830;SDS011;42713;42.676;23.352;2023-03-01T11:14:48;8.05;;;2.30;;
56830;SDS011;42713;42.676;23.352;2023-03-01T11:17:27;13.75;;;4.47;;
56830;SDS011;42713;42.676;23.352;2023-03-01T11:20:01;18.40;;;6.43;;
56830;SDS011;42713;42.676;23.352;2023-03-01T11:22:30;22.20;;;6.75;;
56830;SDS011;42713;42.676;23.352;2023-03-01T11:24:59;30.80;;;10.23;;
56830;SDS011;42713;42.676;23.352;2023-03-01T11:27:28;21.52;;;6.78;;
56830;SDS011;42713;42.676;23.352;2023-03-01T11:30:03;13.40;;;4.50;;
56830;SDS011;42713;42.676;23.352;2023-03-01T11:32:35;15.82;;;4.97;;
56830;SDS011;42713;42.676;23.352;2023-03-01T11:35:20;7.05;;;2.53;;
56830;SDS011;42713;42.676;23.352;2023-03-01T11:37:58;5.13;;;1.65;;
56830;SDS011;42713;42.676;23.352;2023-03-01T11:40:32;4.35;;;1.80;;
56830;SDS011;42713;42.676;23.352;2023-03-01T11:48:50;4.47;;;1.55;;
56830;SDS011;42713;42.676;23.352;2023-03-01T11:51:25;5.28;;;1.85;;
56830;SDS011;42713;42.676;23.352;2023-03-01T12:05:24;5.63;;;1.90;;
56830;SDS011;42713;42.676;23.352;2023-03-01T12:07:59;5.40;;;2.17;;
56830;SDS011;42713;42.676;23.352;2023-03-01T12:10:44;6.35;;;2.20;;
56830;SDS011;42713;42.676;23.352;2023-03-01T12:31:30;8.43;;;2.50;;
56830;SDS011;42713;42.676;23.352;2023-03-01T12:33:43;6.00;;;2.38;;
56830;SDS011;42713;42.676;23.352;2023-03-01T12:50:12;6.60;;;2.55;;
56830;SDS011;42713;42.676;23.352;2023-03-01T12:53:07;6.20;;;2.60;;
56830;SDS011;42713;42.676;23.352;2023-03-01T12:56:28;7.80;;;2.67;;
56830;SDS011;42713;42.676;23.352;2023-03-01T13:20:33;6.43;;;2.72;;
56830;SDS011;42713;42.676;23.352;2023-03-01T13:33:49;16.00;;;2.60;;
56830;SDS011;42713;42.676;23.352;2023-03-01T13:36:49;8.18;;;2.53;;
56830;SDS011;42713;42.676;23.352;2023-03-01T13:41:53;7.38;;;2.33;;
56830;SDS011;42713;42.676;23.352;2023-03-01T13:46:50;6.28;;;2.33;;
56830;SDS011;42713;42.676;23.352;2023-03-01T13:49:17;8.60;;;2.78;;
56830;SDS011;42713;42.676;23.352;2023-03-01T13:51:47;6.18;;;2.28;;
56830;SDS011;42713;42.676;23.352;2023-03-01T13:54:14;10.77;;;2.50;;
56830;SDS011;42713;42.676;23.352;2023-03-01T13:56:41;5.20;;;1.98;;
56830;SDS011;42713;42.676;23.352;2023-03-01T13:59:17;8.30;;;2.90;;
56830;SDS011;42713;42.676;23.352;2023-03-01T14:01:44;6.07;;;2.60;;
56830;SDS011;42713;42.676;23.352;2023-03-01T14:06:48;6.95;;;2.67;;
56830;SDS011;42713;42.676;23.352;2023-03-01T14:19:46;8.40;;;3.10;;
56830;SDS011;42713;42.676;23.352;2023-03-01T14:22:23;7.85;;;2.85;;
56830;SDS011;42713;42.676;23.352;2023-03-01T14:24:58;6.10;;;2.65;;
56830;SDS011;42713;42.676;23.352;2023-03-01T14:27:26;8.80;;;2.65;;
56830;SDS011;42713;42.676;23.352;2023-03-01T14:29:59;9.18;;;2.25;;
56830;SDS011;42713;42.676;23.352;2023-03-01T14:32:28;8.75;;;2.35;;
56830;SDS011;42713;42.676;23.352;2023-03-01T14:34:56;6.82;;;2.47;;
56830;SDS011;42713;42.676;23.352;2023-03-01T14:37:27;9.50;;;2.40;;
56830;SDS011;42713;42.676;23.352;2023-03-01T14:39:55;6.88;;;2.22;;
56830;SDS011;42713;42.676;23.352;2023-03-01T14:42:22;10.00;;;2.30;;
56830;SDS011;42713;42.676;23.352;2023-03-01T14:44:52;9.07;;;2.83;;
56830;SDS011;42713;42.676;23.352;2023-03-01T14:50:03;7.25;;;2.30;;
56830;SDS011;42713;42.676;23.352;2023-03-01T14:52:37;10.57;;;4.45;;
56830;SDS011;42713;42.676;23.352;2023-03-01T14:55:13;10.32;;;2.50;;
56830;SDS011;42713;42.676;23.352;2023-03-01T14:57:51;9.18;;;3.35;;
56830;SDS011;42713;42.676;23.352;2023-03-01T15:00:21;8.93;;;3.17;;
56830;SDS011;42713;42.676;23.352;2023-03-01T15:02:50;8.80;;;3.22;;
56830;SDS011;42713;42.676;23.352;2023-03-01T15:05:22;8.98;;;3.35;;
56830;SDS011;42713;42.676;23.352;2023-03-01T15:07:59;7.90;;;3.07;;
56830;SDS011;42713;42.676;23.352;2023-03-01T15:10:31;8.73;;;2.83;;
56830;SDS011;42713;42.676;23.352;2023-03-01T15:13:12;7.82;;;2.58;;
56830;SDS011;42713;42.676;23.352;2023-03-01T15:15:46;6.18;;;2.20;;
56830;SDS011;42713;42.676;23.352;2023-03-01T15:18:14;7.28;;;2.40;;
56830;SDS011;42713;42.676;23.352;2023-03-01T15:20:40;6.82;;;2.30;;
56830;SDS011;42713;42.676;23.352;2023-03-01T15:23:12;8.65;;;2.55;;
56830;SDS011;42713;42.676;23.352;2023-03-01T15:25:52;7.03;;;2.35;;
56830;SDS011;42713;42.676;23.352;2023-03-01T15:28:42;7.07;;;2.63;;
56830;SDS011;42713;42.676;23.352;2023-03-01T15:33:48;7.78;;;2.33;;
56830;SDS011;42713;42.676;23.352;2023-03-01T15:36:48;7.72;;;2.55;;
56830;SDS011;42713;42.676;23.352;2023-03-01T15:41:55;8.48;;;2.58;;
56830;SDS011;42713;42.676;23.352;2023-03-01T15:44:28;6.80;;;2.47;;
56830;SDS011;42713;42.676;23.352;2023-03-01T15:46:55;10.40;;;3.20;;
56830;SDS011;42713;42.676;23.352;2023-03-01T15:49:27;7.28;;;2.70;;
56830;SDS011;42713;42.676;23.352;2023-03-01T15:51:55;6.95;;;2.45;;
56830;SDS011;42713;42.676;23.352;2023-03-01T15:54:22;11.50;;;2.83;;
56830;SDS011;42713;42.676;23.352;2023-03-01T15:56:50;9.55;;;2.53;;
56830;SDS011;42713;42.676;23.352;2023-03-01T15:59:16;9.43;;;2.88;;
56830;SDS011;42713;42.676;23.352;2023-03-01T16:01:42;8.23;;;2.60;;
56830;SDS011;42713;42.676;23.352;2023-03-01T16:04:12;9.15;;;3.85;;
56830;SDS011;42713;42.676;23.352;2023-03-01T16:06:45;8.65;;;2.72;;
56830;SDS011;42713;42.676;23.352;2023-03-01T16:09:23;12.30;;;2.90;;
56830;SDS011;42713;42.676;23.352;2023-03-01T16:11:51;10.75;;;3.60;;
56830;SDS011;42713;42.676;23.352;2023-03-01T16:14:17;8.10;;;2.80;;
56830;SDS011;42713;42.676;23.352;2023-03-01T16:16:43;12.80;;;3.50;;
56830;SDS011;42713;42.676;23.352;2023-03-01T16:19:09;12.85;;;4.43;;
56830;SDS011;42713;42.676;23.352;2023-03-01T16:21:35;10.77;;;4.40;;
56830;SDS011;42713;42.676;23.352;2023-03-01T16:24:01;11.93;;;3.50;;
56830;SDS011;42713;42.676;23.352;2023-03-01T16:26:27;7.72;;;2.50;;
56830;SDS011;42713;42.676;23.352;2023-03-01T16:28:56;9.90;;;3.50;;
56830;SDS011;42713;42.676;23.352;2023-03-01T16:31:23;10.02;;;3.30;;
56830;SDS011;42713;42.676;23.352;2023-03-01T16:33:55;14.43;;;5.18;;
56830;SDS011;42713;42.676;23.352;2023-03-01T16:36:21;9.52;;;4.20;;
56830;SDS011;42713;42.676;23.352;2023-03-01T16:38:51;11.80;;;3.77;;
56830;SDS011;42713;42.676;23.352;2023-03-01T16:41:18;11.30;;;3.47;;
56830;SDS011;42713;42.676;23.352;2023-03-01T16:43:45;10.65;;;4.63;;
56830;SDS011;42713;42.676;23.352;2023-03-01T16:46:15;9.32;;;3.60;;
56830;SDS011;42713;42.676;23.352;2023-03-01T16:48:42;11.27;;;3.70;;
56830;SDS011;42713;42.676;23.352;2023-03-01T16:51:08;9.45;;;4.10;;
56830;SDS011;42713;42.676;23.352;2023-03-01T16:53:35;9.05;;;3.55;;
56830;SDS011;42713;42.676;23.352;2023-03-01T16:56:01;10.80;;;3.47;;
56830;SDS011;42713;42.676;23.352;2023-03-01T16:58:28;8.25;;;3.10;;
56830;SDS011;42713;42.676;23.352;2023-03-01T17:00:54;12.43;;;2.92;;
56830;SDS011;42713;42.676;23.352;2023-03-01T17:03:21;9.27;;;2.80;;
56830;SDS011;42713;42.676;23.352;2023-03-01T17:05:48;8.90;;;3.40;;
56830;SDS011;42713;42.676;23.352;2023-03-01T17:08:14;7.85;;;2.70;;